Terminal Aerodrome Forecast
Issued by NWS Brownsville, TX

Home | Current Version | Previous Version | Text Only | Print | Product List | Glossary On
Versions: 1 2 3 4 5 6 7 8 9 10 11 12 13 14 15 16
190
FTUS44 KBRO 271120
TAFBRO
TAF
KBRO 271120Z 2712/2812 16010KT P6SM OVC020
     FM271500 15018G25KT P6SM BKN030
     FM271800 14022G28KT P6SM FEW030 BKN250
     FM280100 13016KT P6SM SCT020 BKN250
     FM280400 16012KT P6SM OVC020=

USA.gov is the U.S. government's official web portal to all federal, state and local government web resources and services.